AirNav   Free Bose QuietComfort 20
 
 733 users online  

52FD Pullum Pad
Navarre, Florida, USA

GOING TO NAVARRE?


FAA INFORMATION EFFECTIVE 05 DECEMBER 2019

Location

FAA Identifier: 52FD
Lat/Long: 30-24-08.7160N 086-51-59.8550W
30-24.145267N 086-51.997583W
30.4024211,-86.8666264
(estimated)
Elevation: 20 ft. / 6 m (estimated)
Variation: 00E (1990)
Time zone: UTC -6 (UTC -5 during Daylight Saving Time)
Zip code: 32566

Heliport Operations

Heliport use: Private use. Permission required prior to landing
Activation date: 02/1992
Control tower: no
ARTCC: JACKSONVILLE CENTER
FSS: GAINESVILLE FLIGHT SERVICE STATION
Attendance: 0800-1700
Wind indicator: yes
Segmented circle: no

Heliport Communications

WX ASOS at PNS (17 nm W): PHONE 850-436-4799
WX ASOS at NDZ (19 nm NW): PHONE 850-623-7210

Nearby radio navigation aids

VOR radial/distance  VOR name  Freq  Var
NUNr099/(24.6)SAUFLEY VOR108.8001E
CEWr198/27.2CRESTVIEW VORTAC115.9003E

 
NDB name  Hdg/Dist  Freq  Var  ID
PICKENS099/16.332602WPKZ .--. -.- --..

Heliport Services

Runway Information

Helipad H1

Dimensions: 20 x 20 ft. / 6 x 6 m
Surface: concrete
Traffic pattern: leftleft

Heliport Ownership and Management from official FAA records

Ownership: Privately-owned
Owner: HELICOPTERS OF NW FLORIDA INC
P O BOX 5041
NAVARRE, FL 32566
Manager: BILL PULLUM
5144 NAVARRE PKWY
NAVARRE, FL 32566
Phone 904-939-2363

Heliport Operational Statistics

Aircraft based on the field: 1
Helicopters: 1
    

Additional Remarks

FOR CD CTC PENSACOLA APCH AT 850-266-6884 OR 850-266-6885.

Instrument Procedures

There are no published instrument procedures at 52FD.

Some nearby airports with instrument procedures:

KHRT - Hurlburt Field Airport (9 nm E)
2R4 - Peter Prince Field Airport (16 nm NW)
KPNS - Pensacola International Airport (17 nm W)
KVPS - Eglin Air Force Base/Destin-Fort Walton Beach Airport (18 nm E)
KNDZ - Whiting Field Naval Air Station South (19 nm NW)
 
Loc | Ops | Rwys | IFR | FBO | Links
Com | Nav | Svcs | Stats | Notes
Area around 52FD (Pullum Pad)
 
Road maps at: MapQuest Bing Google
 
Aerial photo
No photo
 
Sectional chart

 
Airport distance calculator
Flying to Pullum Pad? Find the distance to fly.

From to 52FD

Sunrise and sunset
Times for 07-Dec-2019
 Local
(UTC-6)
 Zulu
(UTC)
Morning civil twilight06:0612:06
Sunrise06:3212:32
Sunset16:4622:46
Evening civil twilight17:1223:12

Current date and time
Zulu (UTC)  07-Dec-2019 10:04:18
Local (UTC-6)  07-Dec-2019 04:04:18
 
METAR
KHRT 
10nm E 
070956Z 01008KT 5SM BR OVC002 14/13 A3010 RMK AO2A SLP195 T01390129 $
KPNS 
17nm W 
070953Z AUTO 36006KT 10SM CLR 14/14 A3012 RMK AO2 SLP200 T01440144 $
KVPS 
19nm E 
070956Z AUTO 01009KT 2 1/2SM BR OVC002 14/14 A3011 RMK AO2 VIS 2 1/2V4 SLP203 T01390139 $
KNDZ 
20nm NW 
070449Z COR 36010KT 4SM 36010KT 4SM BR BKN002 OVC049 14/14 A3014 RMK T01440144 LAST
KNSE 
20nm N 
070838Z AUTO VRB04KT 7SM SCT003 SCT019 13/12 A3014 RMK AO2 T01280122 $
KDTS 
21nm E 
070953Z AUTO 01007KT 8SM OVC003 14/14 A3012 RMK AO2 SLP200 T01440139 $
TAF
KHRT 
10nm E 
070200Z 0702/0808 06006KT 9999 SCT025 BKN050 621107 QNH3009INS BECMG 0706/0707 08006KT 9999 BKN007 QNH3011INS BECMG 0716/0717 10009KT 9999 SCT015 BKN030 QNH3014INS TX18/0720Z TN15/0711Z
KPNS 
17nm W 
070537Z 0706/0806 36008KT P6SM SCT007 OVC015 TEMPO 0706/0710 5SM BR OVC007 FM071800 01007KT P6SM OVC025
KVPS 
19nm E 
070755Z 0707/0808 01005KT 9999 FEW004 BKN015 BKN050 QNH3012INS TEMPO 0707/0713 6000 BR BKN004 BECMG 0710/0711 02006KT 8000 BR BKN007 BKN010 OVC035 QNH3015INS BECMG 0716/0717 04009KT 9999 NSW SCT015 BKN035 QNH3011INS TX21/0720Z TN14/0712Z
NOTAMs
Click for the latest NOTAMs
NOTAMs are issued by the DoD/FAA and will open in a separate window not controlled by AirNav.

 

 
 

Would you like to see your business listed on this page?

 If your business provides an interesting product or service to pilots, flight crews, aircraft, or users of the Pullum Pad, you should consider listing it here.  To start the listing process, click on the button below
 
Add a business
 

Other Pages about Pullum Pad

Update a link
 
Copyright © AirNav, LLC. All rights reserved. Privacy Policy  Contact